sensor_id;sensor_type;location;lat;lon;timestamp;P1;durP1;ratioP1;P2;durP2;ratioP2
68126;SDS011;54931;52.098;21.006;2023-03-04T00:00:45;49.80;;;18.90;;
68126;SDS011;54931;52.098;21.006;2023-03-04T00:03:20;103.00;;;33.10;;
68126;SDS011;54931;52.098;21.006;2023-03-04T00:05:50;51.40;;;17.50;;
68126;SDS011;54931;52.098;21.006;2023-03-04T00:08:20;40.30;;;18.20;;
68126;SDS011;54931;52.098;21.006;2023-03-04T00:10:48;52.30;;;21.50;;
68126;SDS011;54931;52.098;21.006;2023-03-04T00:13:18;43.30;;;18.80;;
68126;SDS011;54931;52.098;21.006;2023-03-04T00:15:48;58.80;;;26.10;;
68126;SDS011;54931;52.098;21.006;2023-03-04T00:18:17;45.80;;;18.60;;
68126;SDS011;54931;52.098;21.006;2023-03-04T00:20:47;66.80;;;23.90;;
68126;SDS011;54931;52.098;21.006;2023-03-04T00:23:17;51.70;;;21.60;;
68126;SDS011;54931;52.098;21.006;2023-03-04T00:25:45;54.50;;;17.70;;
68126;SDS011;54931;52.098;21.006;2023-03-04T00:28:13;47.90;;;17.80;;
68126;SDS011;54931;52.098;21.006;2023-03-04T00:30:41;51.80;;;18.50;;
68126;SDS011;54931;52.098;21.006;2023-03-04T00:33:09;64.60;;;26.00;;
68126;SDS011;54931;52.098;21.006;2023-03-04T00:35:37;67.40;;;31.90;;
68126;SDS011;54931;52.098;21.006;2023-03-04T00:38:05;49.90;;;16.90;;
68126;SDS011;54931;52.098;21.006;2023-03-04T00:40:33;53.10;;;22.40;;
68126;SDS011;54931;52.098;21.006;2023-03-04T00:43:01;46.00;;;17.90;;
68126;SDS011;54931;52.098;21.006;2023-03-04T00:45:29;51.80;;;18.40;;
68126;SDS011;54931;52.098;21.006;2023-03-04T00:47:57;55.10;;;18.20;;
68126;SDS011;54931;52.098;21.006;2023-03-04T00:50:25;63.60;;;25.60;;
68126;SDS011;54931;52.098;21.006;2023-03-04T00:52:53;54.90;;;23.50;;
68126;SDS011;54931;52.098;21.006;2023-03-04T00:55:21;67.30;;;26.80;;
68126;SDS011;54931;52.098;21.006;2023-03-04T00:57:49;51.30;;;19.40;;
68126;SDS011;54931;52.098;21.006;2023-03-04T01:00:17;50.90;;;20.10;;
68126;SDS011;54931;52.098;21.006;2023-03-04T01:02:46;60.50;;;21.70;;
68126;SDS011;54931;52.098;21.006;2023-03-04T01:05:14;51.30;;;17.70;;
68126;SDS011;54931;52.098;21.006;2023-03-04T01:07:42;55.50;;;22.40;;
68126;SDS011;54931;52.098;21.006;2023-03-04T01:10:11;54.70;;;22.40;;
68126;SDS011;54931;52.098;21.006;2023-03-04T01:12:41;60.30;;;23.00;;
68126;SDS011;54931;52.098;21.006;2023-03-04T01:15:11;53.00;;;18.70;;
68126;SDS011;54931;52.098;21.006;2023-03-04T01:17:40;53.60;;;22.10;;
68126;SDS011;54931;52.098;21.006;2023-03-04T01:20:09;46.90;;;16.40;;
68126;SDS011;54931;52.098;21.006;2023-03-04T01:22:38;53.20;;;19.90;;
68126;SDS011;54931;52.098;21.006;2023-03-04T01:25:06;57.60;;;18.80;;
68126;SDS011;54931;52.098;21.006;2023-03-04T01:27:35;55.10;;;19.50;;
68126;SDS011;54931;52.098;21.006;2023-03-04T01:30:03;51.50;;;21.80;;
68126;SDS011;54931;52.098;21.006;2023-03-04T01:32:32;47.90;;;18.80;;
68126;SDS011;54931;52.098;21.006;2023-03-04T01:35:00;55.60;;;23.40;;
68126;SDS011;54931;52.098;21.006;2023-03-04T01:37:28;54.20;;;24.10;;
68126;SDS011;54931;52.098;21.006;2023-03-04T01:39:56;52.50;;;20.20;;
68126;SDS011;54931;52.098;21.006;2023-03-04T01:42:25;53.50;;;23.10;;
68126;SDS011;54931;52.098;21.006;2023-03-04T01:44:56;51.50;;;21.40;;
68126;SDS011;54931;52.098;21.006;2023-03-04T01:47:27;44.60;;;16.10;;
68126;SDS011;54931;52.098;21.006;2023-03-04T01:49:57;42.30;;;13.70;;
68126;SDS011;54931;52.098;21.006;2023-03-04T01:52:27;41.80;;;14.80;;
68126;SDS011;54931;52.098;21.006;2023-03-04T01:54:56;45.20;;;20.50;;
68126;SDS011;54931;52.098;21.006;2023-03-04T01:57:25;34.30;;;12.80;;
68126;SDS011;54931;52.098;21.006;2023-03-04T02:02:52;41.40;;;14.60;;
68126;SDS011;54931;52.098;21.006;2023-03-04T02:05:23;35.70;;;12.90;;
68126;SDS011;54931;52.098;21.006;2023-03-04T02:07:53;42.20;;;17.40;;
68126;SDS011;54931;52.098;21.006;2023-03-04T02:10:22;38.60;;;15.90;;
68126;SDS011;54931;52.098;21.006;2023-03-04T02:12:51;48.30;;;19.80;;
68126;SDS011;54931;52.098;21.006;2023-03-04T02:15:19;40.20;;;15.90;;
68126;SDS011;54931;52.098;21.006;2023-03-04T02:17:48;41.80;;;16.20;;
68126;SDS011;54931;52.098;21.006;2023-03-04T02:23:00;38.70;;;15.30;;
68126;SDS011;54931;52.098;21.006;2023-03-04T02:25:36;40.50;;;14.50;;
68126;SDS011;54931;52.098;21.006;2023-03-04T02:28:10;38.60;;;14.60;;
68126;SDS011;54931;52.098;21.006;2023-03-04T02:30:38;38.50;;;14.90;;
68126;SDS011;54931;52.098;21.006;2023-03-04T02:33:06;42.90;;;17.90;;
68126;SDS011;54931;52.098;21.006;2023-03-04T02:35:40;46.00;;;16.40;;
68126;SDS011;54931;52.098;21.006;2023-03-04T02:38:10;40.40;;;18.10;;
68126;SDS011;54931;52.098;21.006;2023-03-04T02:40:39;43.60;;;16.60;;
68126;SDS011;54931;52.098;21.006;2023-03-04T02:43:10;44.00;;;17.80;;
68126;SDS011;54931;52.098;21.006;2023-03-04T02:45:43;41.50;;;18.60;;
68126;SDS011;54931;52.098;21.006;2023-03-04T02:48:19;44.10;;;15.70;;
68126;SDS011;54931;52.098;21.006;2023-03-04T02:50:50;45.30;;;18.90;;
68126;SDS011;54931;52.098;21.006;2023-03-04T02:53:19;40.60;;;13.50;;
68126;SDS011;54931;52.098;21.006;2023-03-04T02:55:48;44.40;;;17.90;;
68126;SDS011;54931;52.098;21.006;2023-03-04T02:58:16;45.20;;;15.60;;
68126;SDS011;54931;52.098;21.006;2023-03-04T03:00:44;42.90;;;17.30;;
68126;SDS011;54931;52.098;21.006;2023-03-04T03:03:12;46.60;;;18.00;;
68126;SDS011;54931;52.098;21.006;2023-03-04T03:05:40;46.40;;;16.30;;
68126;SDS011;54931;52.098;21.006;2023-03-04T03:08:08;37.00;;;14.10;;
68126;SDS011;54931;52.098;21.006;2023-03-04T03:10:36;41.60;;;15.10;;
68126;SDS011;54931;52.098;21.006;2023-03-04T03:13:04;42.10;;;16.20;;
68126;SDS011;54931;52.098;21.006;2023-03-04T03:15:32;37.70;;;15.80;;
68126;SDS011;54931;52.098;21.006;2023-03-04T03:18:00;44.80;;;19.00;;
68126;SDS011;54931;52.098;21.006;2023-03-04T03:20:28;44.30;;;17.60;;
68126;SDS011;54931;52.098;21.006;2023-03-04T03:22:55;43.90;;;17.30;;
68126;SDS011;54931;52.098;21.006;2023-03-04T03:25:23;40.30;;;15.90;;
68126;SDS011;54931;52.098;21.006;2023-03-04T03:27:51;45.80;;;17.70;;
68126;SDS011;54931;52.098;21.006;2023-03-04T03:30:19;45.10;;;17.60;;
68126;SDS011;54931;52.098;21.006;2023-03-04T03:32:47;40.80;;;18.80;;
68126;SDS011;54931;52.098;21.006;2023-03-04T03:35:15;39.80;;;16.00;;
68126;SDS011;54931;52.098;21.006;2023-03-04T03:37:44;40.40;;;17.10;;
68126;SDS011;54931;52.098;21.006;2023-03-04T03:40:12;49.10;;;19.90;;
68126;SDS011;54931;52.098;21.006;2023-03-04T03:42:40;42.60;;;16.70;;
68126;SDS011;54931;52.098;21.006;2023-03-04T03:45:08;44.10;;;18.90;;
68126;SDS011;54931;52.098;21.006;2023-03-04T03:47:37;38.40;;;15.90;;
68126;SDS011;54931;52.098;21.006;2023-03-04T03:50:05;28.60;;;11.80;;
68126;SDS011;54931;52.098;21.006;2023-03-04T03:52:34;45.20;;;17.40;;
68126;SDS011;54931;52.098;21.006;2023-03-04T03:55:02;44.00;;;17.40;;
68126;SDS011;54931;52.098;21.006;2023-03-04T03:57:30;40.30;;;17.30;;
68126;SDS011;54931;52.098;21.006;2023-03-04T03:59:58;42.80;;;18.00;;
68126;SDS011;54931;52.098;21.006;2023-03-04T04:02:27;47.70;;;17.60;;
68126;SDS011;54931;52.098;21.006;2023-03-04T04:04:55;43.00;;;14.50;;
68126;SDS011;54931;52.098;21.006;2023-03-04T04:07:22;43.80;;;17.10;;
68126;SDS011;54931;52.098;21.006;2023-03-04T04:09:50;42.90;;;19.90;;
68126;SDS011;54931;52.098;21.006;2023-03-04T04:12:19;38.20;;;16.20;;
68126;SDS011;54931;52.098;21.006;2023-03-04T04:14:47;43.10;;;18.20;;
68126;SDS011;54931;52.098;21.006;2023-03-04T04:17:14;46.00;;;18.70;;
68126;SDS011;54931;52.098;21.006;2023-03-04T04:19:42;40.50;;;16.80;;
68126;SDS011;54931;52.098;21.006;2023-03-04T04:22:14;36.10;;;14.40;;
68126;SDS011;54931;52.098;21.006;2023-03-04T04:24:44;41.30;;;16.70;;
68126;SDS011;54931;52.098;21.006;2023-03-04T04:27:12;42.00;;;19.50;;
68126;SDS011;54931;52.098;21.006;2023-03-04T04:29:40;46.80;;;20.50;;
68126;SDS011;54931;52.098;21.006;2023-03-04T04:32:08;44.10;;;19.60;;
68126;SDS011;54931;52.098;21.006;2023-03-04T04:34:36;42.00;;;19.30;;
68126;SDS011;54931;52.098;21.006;2023-03-04T04:37:04;44.10;;;17.60;;
68126;SDS011;54931;52.098;21.006;2023-03-04T04:39:32;40.40;;;18.90;;
68126;SDS011;54931;52.098;21.006;2023-03-04T04:42:00;42.30;;;17.00;;
68126;SDS011;54931;52.098;21.006;2023-03-04T04:44:30;43.40;;;18.00;;
68126;SDS011;54931;52.098;21.006;2023-03-04T04:46:57;42.30;;;15.80;;
68126;SDS011;54931;52.098;21.006;2023-03-04T04:49:25;44.70;;;18.50;;
68126;SDS011;54931;52.098;21.006;2023-03-04T04:51:53;42.60;;;18.50;;
68126;SDS011;54931;52.098;21.006;2023-03-04T04:54:21;43.00;;;18.70;;
68126;SDS011;54931;52.098;21.006;2023-03-04T04:56:49;43.30;;;21.10;;
68126;SDS011;54931;52.098;21.006;2023-03-04T04:59:17;47.00;;;17.20;;
68126;SDS011;54931;52.098;21.006;2023-03-04T05:01:45;38.40;;;18.40;;
68126;SDS011;54931;52.098;21.006;2023-03-04T05:04:13;41.40;;;15.70;;
68126;SDS011;54931;52.098;21.006;2023-03-04T05:06:41;42.20;;;18.70;;
68126;SDS011;54931;52.098;21.006;2023-03-04T05:09:10;38.10;;;16.90;;
68126;SDS011;54931;52.098;21.006;2023-03-04T05:11:39;36.90;;;16.00;;
68126;SDS011;54931;52.098;21.006;2023-03-04T05:14:06;39.90;;;18.00;;
68126;SDS011;54931;52.098;21.006;2023-03-04T05:16:34;41.10;;;15.60;;
68126;SDS011;54931;52.098;21.006;2023-03-04T05:19:03;36.40;;;15.40;;
68126;SDS011;54931;52.098;21.006;2023-03-04T05:21:30;42.70;;;16.60;;
68126;SDS011;54931;52.098;21.006;2023-03-04T05:23:58;47.00;;;17.70;;
68126;SDS011;54931;52.098;21.006;2023-03-04T05:26:26;40.00;;;14.30;;
68126;SDS011;54931;52.098;21.006;2023-03-04T05:28:54;39.60;;;15.20;;
68126;SDS011;54931;52.098;21.006;2023-03-04T05:31:21;41.00;;;18.50;;
68126;SDS011;54931;52.098;21.006;2023-03-04T05:33:50;36.90;;;16.70;;
68126;SDS011;54931;52.098;21.006;2023-03-04T05:36:17;39.30;;;16.60;;
68126;SDS011;54931;52.098;21.006;2023-03-04T05:38:47;34.60;;;17.40;;
68126;SDS011;54931;52.098;21.006;2023-03-04T05:41:15;33.00;;;14.60;;
68126;SDS011;54931;52.098;21.006;2023-03-04T05:43:45;37.70;;;17.70;;
68126;SDS011;54931;52.098;21.006;2023-03-04T05:46:15;36.20;;;17.90;;
68126;SDS011;54931;52.098;21.006;2023-03-04T05:48:44;39.50;;;14.60;;
68126;SDS011;54931;52.098;21.006;2023-03-04T05:51:12;32.70;;;14.60;;
68126;SDS011;54931;52.098;21.006;2023-03-04T05:53:40;39.00;;;16.00;;
68126;SDS011;54931;52.098;21.006;2023-03-04T05:56:09;40.20;;;17.90;;
68126;SDS011;54931;52.098;21.006;2023-03-04T05:58:39;41.60;;;15.40;;
68126;SDS011;54931;52.098;21.006;2023-03-04T06:01:08;29.40;;;12.60;;
68126;SDS011;54931;52.098;21.006;2023-03-04T06:03:36;38.50;;;15.00;;
68126;SDS011;54931;52.098;21.006;2023-03-04T06:06:05;40.30;;;16.80;;
68126;SDS011;54931;52.098;21.006;2023-03-04T06:08:33;36.40;;;16.00;;
68126;SDS011;54931;52.098;21.006;2023-03-04T06:11:01;39.20;;;15.10;;
68126;SDS011;54931;52.098;21.006;2023-03-04T06:13:31;36.90;;;15.50;;
68126;SDS011;54931;52.098;21.006;2023-03-04T06:16:00;47.30;;;19.20;;
68126;SDS011;54931;52.098;21.006;2023-03-04T06:18:28;45.40;;;17.50;;
68126;SDS011;54931;52.098;21.006;2023-03-04T06:20:57;40.20;;;19.30;;
68126;SDS011;54931;52.098;21.006;2023-03-04T06:23:27;47.90;;;18.70;;
68126;SDS011;54931;52.098;21.006;2023-03-04T06:25:58;42.50;;;19.50;;
68126;SDS011;54931;52.098;21.006;2023-03-04T06:28:27;38.90;;;19.50;;
68126;SDS011;54931;52.098;21.006;2023-03-04T06:30:57;35.10;;;14.90;;
68126;SDS011;54931;52.098;21.006;2023-03-04T06:33:25;35.30;;;15.60;;
68126;SDS011;54931;52.098;21.006;2023-03-04T06:35:55;28.80;;;13.50;;
68126;SDS011;54931;52.098;21.006;2023-03-04T06:38:25;34.10;;;16.50;;
68126;SDS011;54931;52.098;21.006;2023-03-04T06:40:53;35.60;;;15.50;;
68126;SDS011;54931;52.098;21.006;2023-03-04T06:43:22;34.60;;;17.10;;
68126;SDS011;54931;52.098;21.006;2023-03-04T06:45:50;33.00;;;16.80;;
68126;SDS011;54931;52.098;21.006;2023-03-04T06:48:18;28.80;;;11.50;;
68126;SDS011;54931;52.098;21.006;2023-03-04T06:50:45;34.70;;;16.80;;
68126;SDS011;54931;52.098;21.006;2023-03-04T06:53:13;37.40;;;17.60;;
68126;SDS011;54931;52.098;21.006;2023-03-04T06:55:41;34.50;;;13.80;;
68126;SDS011;54931;52.098;21.006;2023-03-04T06:58:09;30.40;;;12.40;;
68126;SDS011;54931;52.098;21.006;2023-03-04T07:00:37;29.80;;;12.30;;
68126;SDS011;54931;52.098;21.006;2023-03-04T07:03:05;37.40;;;17.10;;
68126;SDS011;54931;52.098;21.006;2023-03-04T07:05:33;34.20;;;14.20;;
68126;SDS011;54931;52.098;21.006;2023-03-04T07:08:01;33.50;;;15.80;;
68126;SDS011;54931;52.098;21.006;2023-03-04T07:10:29;33.40;;;16.10;;
68126;SDS011;54931;52.098;21.006;2023-03-04T07:12:57;36.30;;;18.10;;
68126;SDS011;54931;52.098;21.006;2023-03-04T07:15:25;34.20;;;15.50;;
68126;SDS011;54931;52.098;21.006;2023-03-04T07:17:53;34.10;;;15.50;;
68126;SDS011;54931;52.098;21.006;2023-03-04T07:20:22;38.60;;;17.20;;
68126;SDS011;54931;52.098;21.006;2023-03-04T07:22:49;39.40;;;17.20;;
68126;SDS011;54931;52.098;21.006;2023-03-04T07:25:17;35.80;;;15.20;;
68126;SDS011;54931;52.098;21.006;2023-03-04T07:27:45;36.20;;;18.30;;
68126;SDS011;54931;52.098;21.006;2023-03-04T07:30:14;41.10;;;19.10;;
68126;SDS011;54931;52.098;21.006;2023-03-04T07:32:42;34.90;;;18.60;;
68126;SDS011;54931;52.098;21.006;2023-03-04T07:35:10;31.50;;;14.50;;
68126;SDS011;54931;52.098;21.006;2023-03-04T07:37:38;33.40;;;16.50;;
68126;SDS011;54931;52.098;21.006;2023-03-04T07:40:07;35.00;;;15.60;;
68126;SDS011;54931;52.098;21.006;2023-03-04T07:42:36;30.90;;;12.90;;
68126;SDS011;54931;52.098;21.006;2023-03-04T07:45:05;36.40;;;17.10;;
68126;SDS011;54931;52.098;21.006;2023-03-04T07:47:34;34.70;;;15.20;;
68126;SDS011;54931;52.098;21.006;2023-03-04T07:50:02;29.40;;;15.10;;
68126;SDS011;54931;52.098;21.006;2023-03-04T07:52:31;33.00;;;14.30;;
68126;SDS011;54931;52.098;21.006;2023-03-04T07:54:59;32.10;;;14.90;;
68126;SDS011;54931;52.098;21.006;2023-03-04T07:57:27;31.20;;;13.70;;
68126;SDS011;54931;52.098;21.006;2023-03-04T07:59:55;33.20;;;14.60;;
68126;SDS011;54931;52.098;21.006;2023-03-04T08:02:22;29.20;;;13.50;;
68126;SDS011;54931;52.098;21.006;2023-03-04T08:04:51;28.50;;;11.60;;
68126;SDS011;54931;52.098;21.006;2023-03-04T08:07:18;28.40;;;14.50;;
68126;SDS011;54931;52.098;21.006;2023-03-04T08:09:46;31.00;;;13.90;;
68126;SDS011;54931;52.098;21.006;2023-03-04T08:12:15;30.70;;;15.80;;
68126;SDS011;54931;52.098;21.006;2023-03-04T08:14:43;28.80;;;14.60;;
68126;SDS011;54931;52.098;21.006;2023-03-04T08:17:11;28.20;;;13.30;;
68126;SDS011;54931;52.098;21.006;2023-03-04T08:19:41;33.80;;;14.40;;
68126;SDS011;54931;52.098;21.006;2023-03-04T08:22:09;31.70;;;13.10;;
68126;SDS011;54931;52.098;21.006;2023-03-04T08:24:37;33.20;;;12.10;;
68126;SDS011;54931;52.098;21.006;2023-03-04T08:27:05;31.30;;;13.60;;
68126;SDS011;54931;52.098;21.006;2023-03-04T08:29:33;27.70;;;12.60;;
68126;SDS011;54931;52.098;21.006;2023-03-04T08:32:01;26.10;;;10.60;;
68126;SDS011;54931;52.098;21.006;2023-03-04T08:34:30;24.70;;;12.70;;
68126;SDS011;54931;52.098;21.006;2023-03-04T08:36:57;28.30;;;11.80;;
68126;SDS011;54931;52.098;21.006;2023-03-04T08:39:25;32.80;;;12.30;;
68126;SDS011;54931;52.098;21.006;2023-03-04T08:41:54;29.80;;;12.50;;
68126;SDS011;54931;52.098;21.006;2023-03-04T08:44:21;28.10;;;12.10;;
68126;SDS011;54931;52.098;21.006;2023-03-04T08:46:49;27.40;;;12.10;;
68126;SDS011;54931;52.098;21.006;2023-03-04T08:49:17;26.30;;;12.00;;
68126;SDS011;54931;52.098;21.006;2023-03-04T08:51:45;26.90;;;11.70;;
68126;SDS011;54931;52.098;21.006;2023-03-04T08:54:12;27.10;;;11.90;;
68126;SDS011;54931;52.098;21.006;2023-03-04T08:56:41;21.60;;;10.40;;
68126;SDS011;54931;52.098;21.006;2023-03-04T08:59:09;31.40;;;12.20;;
68126;SDS011;54931;52.098;21.006;2023-03-04T09:01:37;26.00;;;9.90;;
68126;SDS011;54931;52.098;21.006;2023-03-04T09:04:05;27.40;;;11.40;;
68126;SDS011;54931;52.098;21.006;2023-03-04T09:06:33;26.20;;;11.90;;
68126;SDS011;54931;52.098;21.006;2023-03-04T09:09:02;22.80;;;8.80;;
68126;SDS011;54931;52.098;21.006;2023-03-04T09:11:30;25.40;;;12.30;;
68126;SDS011;54931;52.098;21.006;2023-03-04T09:13:59;17.90;;;8.20;;
68126;SDS011;54931;52.098;21.006;2023-03-04T09:16:27;22.90;;;8.90;;
68126;SDS011;54931;52.098;21.006;2023-03-04T09:18:54;29.10;;;13.50;;
68126;SDS011;54931;52.098;21.006;2023-03-04T09:21:22;27.50;;;10.50;;
68126;SDS011;54931;52.098;21.006;2023-03-04T09:23:50;33.10;;;13.00;;
68126;SDS011;54931;52.098;21.006;2023-03-04T09:26:22;28.30;;;11.80;;
68126;SDS011;54931;52.098;21.006;2023-03-04T09:28:54;27.80;;;12.20;;
68126;SDS011;54931;52.098;21.006;2023-03-04T09:31:24;27.20;;;11.40;;
68126;SDS011;54931;52.098;21.006;2023-03-04T09:33:56;23.70;;;9.90;;
68126;SDS011;54931;52.098;21.006;2023-03-04T09:36:24;23.40;;;10.70;;
68126;SDS011;54931;52.098;21.006;2023-03-04T09:38:52;20.80;;;10.10;;
68126;SDS011;54931;52.098;21.006;2023-03-04T09:41:26;24.60;;;9.00;;
68126;SDS011;54931;52.098;21.006;2023-03-04T09:44:27;25.80;;;11.80;;
68126;SDS011;54931;52.098;21.006;2023-03-04T09:47:02;35.50;;;15.60;;
68126;SDS011;54931;52.098;21.006;2023-03-04T09:49:37;31.60;;;13.20;;
68126;SDS011;54931;52.098;21.006;2023-03-04T09:55:38;28.20;;;11.40;;
68126;SDS011;54931;52.098;21.006;2023-03-04T09:58:27;23.70;;;10.60;;
68126;SDS011;54931;52.098;21.006;2023-03-04T10:04:37;27.40;;;12.70;;
68126;SDS011;54931;52.098;21.006;2023-03-04T10:07:22;22.90;;;9.20;;
68126;SDS011;54931;52.098;21.006;2023-03-04T10:10:03;30.60;;;12.20;;
68126;SDS011;54931;52.098;21.006;2023-03-04T10:12:38;23.40;;;9.80;;
68126;SDS011;54931;52.098;21.006;2023-03-04T10:15:17;26.70;;;10.20;;
68126;SDS011;54931;52.098;21.006;2023-03-04T10:18:15;31.00;;;10.10;;
68126;SDS011;54931;52.098;21.006;2023-03-04T10:21:01;25.00;;;10.90;;
68126;SDS011;54931;52.098;21.006;2023-03-04T10:23:34;24.30;;;11.30;;
68126;SDS011;54931;52.098;21.006;2023-03-04T10:26:14;25.70;;;11.00;;
68126;SDS011;54931;52.098;21.006;2023-03-04T10:28:43;22.90;;;10.80;;
68126;SDS011;54931;52.098;21.006;2023-03-04T10:34:05;24.20;;;11.20;;
68126;SDS011;54931;52.098;21.006;2023-03-04T10:36:42;25.20;;;12.00;;
68126;SDS011;54931;52.098;21.006;2023-03-04T10:39:17;33.20;;;14.60;;
68126;SDS011;54931;52.098;21.006;2023-03-04T10:42:03;29.60;;;10.90;;
68126;SDS011;54931;52.098;21.006;2023-03-04T10:44:51;44.00;;;18.50;;
68126;SDS011;54931;52.098;21.006;2023-03-04T10:47:26;23.00;;;10.10;;
68126;SDS011;54931;52.098;21.006;2023-03-04T10:49:58;27.70;;;12.60;;
68126;SDS011;54931;52.098;21.006;2023-03-04T10:52:54;25.40;;;10.80;;
68126;SDS011;54931;52.098;21.006;2023-03-04T10:55:27;25.20;;;10.70;;
68126;SDS011;54931;52.098;21.006;2023-03-04T10:58:03;22.40;;;9.30;;
68126;SDS011;54931;52.098;21.006;2023-03-04T11:00:35;28.80;;;12.10;;
68126;SDS011;54931;52.098;21.006;2023-03-04T11:06:19;41.40;;;16.00;;
68126;SDS011;54931;52.098;21.006;2023-03-04T11:08:54;22.50;;;9.20;;
68126;SDS011;54931;52.098;21.006;2023-03-04T11:11:42;28.50;;;11.40;;
68126;SDS011;54931;52.098;21.006;2023-03-04T11:16:58;27.40;;;11.60;;
68126;SDS011;54931;52.098;21.006;2023-03-04T11:19:36;28.20;;;9.90;;
68126;SDS011;54931;52.098;21.006;2023-03-04T11:22:05;49.20;;;23.40;;
68126;SDS011;54931;52.098;21.006;2023-03-04T11:24:35;29.80;;;13.40;;
68126;SDS011;54931;52.098;21.006;2023-03-04T11:27:11;23.40;;;10.30;;
68126;SDS011;54931;52.098;21.006;2023-03-04T11:30:26;37.20;;;17.20;;
68126;SDS011;54931;52.098;21.006;2023-03-04T11:33:08;31.00;;;15.60;;
68126;SDS011;54931;52.098;21.006;2023-03-04T11:38:49;31.00;;;10.90;;
68126;SDS011;54931;52.098;21.006;2023-03-04T11:41:46;46.10;;;18.10;;
68126;SDS011;54931;52.098;21.006;2023-03-04T11:44:21;55.60;;;25.60;;
68126;SDS011;54931;52.098;21.006;2023-03-04T11:47:01;41.40;;;18.30;;
68126;SDS011;54931;52.098;21.006;2023-03-04T11:49:51;26.70;;;13.40;;
68126;SDS011;54931;52.098;21.006;2023-03-04T11:53:01;29.60;;;10.20;;
68126;SDS011;54931;52.098;21.006;2023-03-04T12:04:11;26.40;;;13.00;;
68126;SDS011;54931;52.098;21.006;2023-03-04T12:07:13;22.10;;;11.70;;
68126;SDS011;54931;52.098;21.006;2023-03-04T12:10:14;24.40;;;10.50;;
68126;SDS011;54931;52.098;21.006;2023-03-04T12:13:06;22.20;;;10.20;;
68126;SDS011;54931;52.098;21.006;2023-03-04T12:24:29;34.30;;;15.70;;
68126;SDS011;54931;52.098;21.006;2023-03-04T12:27:23;33.70;;;15.10;;
68126;SDS011;54931;52.098;21.006;2023-03-04T12:39:28;57.40;;;25.10;;
68126;SDS011;54931;52.098;21.006;2023-03-04T12:42:11;39.50;;;17.10;;
68126;SDS011;54931;52.098;21.006;2023-03-04T12:50:41;25.70;;;12.80;;
68126;SDS011;54931;52.098;21.006;2023-03-04T12:53:40;32.30;;;12.00;;
68126;SDS011;54931;52.098;21.006;2023-03-04T12:56:27;33.50;;;12.20;;
68126;SDS011;54931;52.098;21.006;2023-03-04T12:59:04;26.00;;;12.60;;
68126;SDS011;54931;52.098;21.006;2023-03-04T13:01:40;38.30;;;15.70;;
68126;SDS011;54931;52.098;21.006;2023-03-04T13:04:21;33.20;;;13.70;;
68126;SDS011;54931;52.098;21.006;2023-03-04T13:10:23;37.30;;;14.50;;
68126;SDS011;54931;52.098;21.006;2023-03-04T13:12:54;35.90;;;15.40;;
68126;SDS011;54931;52.098;21.006;2023-03-04T13:21:17;33.60;;;13.60;;
68126;SDS011;54931;52.098;21.006;2023-03-04T13:27:45;37.50;;;15.30;;
68126;SDS011;54931;52.098;21.006;2023-03-04T13:38:22;33.70;;;13.30;;
68126;SDS011;54931;52.098;21.006;2023-03-04T13:43:59;43.60;;;17.00;;
68126;SDS011;54931;52.098;21.006;2023-03-04T13:46:40;31.90;;;16.30;;
68126;SDS011;54931;52.098;21.006;2023-03-04T13:49:20;29.70;;;12.60;;
68126;SDS011;54931;52.098;21.006;2023-03-04T13:51:53;29.00;;;12.30;;
68126;SDS011;54931;52.098;21.006;2023-03-04T13:54:28;23.70;;;11.10;;
68126;SDS011;54931;52.098;21.006;2023-03-04T13:59:58;19.70;;;7.50;;
68126;SDS011;54931;52.098;21.006;2023-03-04T14:02:33;14.00;;;6.80;;
68126;SDS011;54931;52.098;21.006;2023-03-04T14:05:01;12.40;;;6.10;;
68126;SDS011;54931;52.098;21.006;2023-03-04T14:07:32;12.50;;;6.10;;
68126;SDS011;54931;52.098;21.006;2023-03-04T14:17:58;22.90;;;8.50;;
68126;SDS011;54931;52.098;21.006;2023-03-04T14:23:29;27.90;;;10.00;;
68126;SDS011;54931;52.098;21.006;2023-03-04T14:26:09;19.70;;;8.20;;
68126;SDS011;54931;52.098;21.006;2023-03-04T14:28:50;15.50;;;8.10;;
68126;SDS011;54931;52.098;21.006;2023-03-04T14:31:25;19.80;;;8.30;;
68126;SDS011;54931;52.098;21.006;2023-03-04T14:33:58;18.50;;;8.40;;
68126;SDS011;54931;52.098;21.006;2023-03-04T14:36:32;12.90;;;6.10;;
68126;SDS011;54931;52.098;21.006;2023-03-04T14:39:04;22.20;;;8.80;;
68126;SDS011;54931;52.098;21.006;2023-03-04T14:41:37;27.20;;;10.10;;
68126;SDS011;54931;52.098;21.006;2023-03-04T14:47:33;25.20;;;11.60;;
68126;SDS011;54931;52.098;21.006;2023-03-04T14:50:06;18.10;;;8.60;;
68126;SDS011;54931;52.098;21.006;2023-03-04T14:52:42;33.80;;;15.30;;
68126;SDS011;54931;52.098;21.006;2023-03-04T14:55:22;20.90;;;10.00;;
68126;SDS011;54931;52.098;21.006;2023-03-04T14:57:53;26.90;;;12.20;;
68126;SDS011;54931;52.098;21.006;2023-03-04T15:00:38;18.80;;;10.10;;
68126;SDS011;54931;52.098;21.006;2023-03-04T15:03:21;26.30;;;13.90;;
68126;SDS011;54931;52.098;21.006;2023-03-04T15:05:53;21.00;;;11.00;;
68126;SDS011;54931;52.098;21.006;2023-03-04T15:08:24;24.70;;;11.40;;
68126;SDS011;54931;52.098;21.006;2023-03-04T15:10:57;21.10;;;11.10;;
68126;SDS011;54931;52.098;21.006;2023-03-04T15:13:38;27.50;;;12.30;;
68126;SDS011;54931;52.098;21.006;2023-03-04T15:16:09;26.30;;;12.20;;
68126;SDS011;54931;52.098;21.006;2023-03-04T15:19:00;24.40;;;12.70;;
68126;SDS011;54931;52.098;21.006;2023-03-04T15:21:41;46.80;;;21.20;;
68126;SDS011;54931;52.098;21.006;2023-03-04T15:24:09;32.20;;;14.80;;
68126;SDS011;54931;52.098;21.006;2023-03-04T15:26:41;77.40;;;24.30;;
68126;SDS011;54931;52.098;21.006;2023-03-04T15:29:28;26.50;;;12.30;;
68126;SDS011;54931;52.098;21.006;2023-03-04T15:31:56;22.00;;;10.70;;
68126;SDS011;54931;52.098;21.006;2023-03-04T15:34:24;29.50;;;12.70;;
68126;SDS011;54931;52.098;21.006;2023-03-04T15:36:52;19.40;;;8.80;;
68126;SDS011;54931;52.098;21.006;2023-03-04T15:39:23;18.00;;;9.40;;
68126;SDS011;54931;52.098;21.006;2023-03-04T15:41:52;7.30;;;4.00;;
68126;SDS011;54931;52.098;21.006;2023-03-04T15:44:22;5.30;;;2.60;;
68126;SDS011;54931;52.098;21.006;2023-03-04T15:46:50;4.90;;;2.40;;
68126;SDS011;54931;52.098;21.006;2023-03-04T15:49:18;5.30;;;2.60;;
68126;SDS011;54931;52.098;21.006;2023-03-04T15:51:47;20.00;;;9.20;;
68126;SDS011;54931;52.098;21.006;2023-03-04T15:54:16;27.80;;;12.20;;
68126;SDS011;54931;52.098;21.006;2023-03-04T15:56:44;22.40;;;7.90;;
68126;SDS011;54931;52.098;21.006;2023-03-04T15:59:13;118.90;;;40.00;;
68126;SDS011;54931;52.098;21.006;2023-03-04T16:01:43;79.90;;;27.00;;
68126;SDS011;54931;52.098;21.006;2023-03-04T16:04:13;17.00;;;5.30;;
68126;SDS011;54931;52.098;21.006;2023-03-04T16:06:44;17.30;;;6.90;;
68126;SDS011;54931;52.098;21.006;2023-03-04T16:09:16;48.60;;;17.30;;
68126;SDS011;54931;52.098;21.006;2023-03-04T16:11:46;5.10;;;2.40;;
68126;SDS011;54931;52.098;21.006;2023-03-04T16:14:15;9.50;;;4.20;;